AirNav   Pilot Hours Calculator
 
 1285 users online  

MO55 SSM Health St Louis University Hospital Heliport
St Louis, Missouri, USA

GOING TO ST LOUIS?


FAA INFORMATION EFFECTIVE 05 DECEMBER 2019

Location

FAA Identifier: MO55
Lat/Long: 38-37-14.4600N 090-14-23.7800W
38-37.241000N 090-14.396333W
38.6206833,-90.2399389
(estimated)
Elevation: 550 ft. / 168 m (estimated)
Variation: 02E (1985)
From city: 3 miles W of ST LOUIS, MO
Time zone: UTC -6 (UTC -5 during Daylight Saving Time)
Zip code: 63104

Heliport Operations

Heliport use: Private use, MEDICAL.
Activation date: 11/1988
Control tower: no
ARTCC: KANSAS CITY CENTER
FSS: SAINT LOUIS FLIGHT SERVICE STATION
Attendance: CONTINUOUS
Wind indicator: yes
Segmented circle: no
Lights: ACTVT FLOOD LGTS - 123.050.
Beacon: white-green-yellow (heliport)
24 HRS.

Heliport Communications

WX ASOS at CPS (5 nm SE): PHONE 618-332-0001
WX ASOS at STL (10 nm NW): PHONE 314-890-4790
WX AWOS-3 at ALN (19 nm NE): 128.0 (618-259-7231)
WX ASOS at SUS (19 nm W): 134.8 (314-890-7255)

Nearby radio navigation aids

VOR radial/distance  VOR name  Freq  Var
TOYr241/16.6TROY VORTAC116.0004E
STLr141/18.3ST LOUIS VORTAC117.4001E
FTZr092/34.5FORISTELL VORTAC110.8005E

 
NDB name  Hdg/Dist  Freq  Var  ID
ZUMAY171/10.240401WST ... -
ACORE306/10.435000ECP -.-. .--.
EAVES104/14.822701WFZ ..-. --..
CIVIC MEMORIAL209/18.426301WCVM -.-. ...- --

Heliport Services

Runway Information

Helipad H1

Dimensions: 50 x 50 ft. / 15 x 15 m
Surface: metal
ROOFTOP.
Runway edge lights: FLD
Latitude: 38-37.241000N
Longitude: 090-14.396333W
Elevation: 550.0 ft.
Traffic pattern: leftleft

Heliport Ownership and Management from official FAA records

Ownership: Privately-owned
Owner: SSM HEALTH ST. LOUIS UNIV. HOSPITAL
1015 CORPORATE SQUARE DR.
ST LOUIS, MO 63132
Phone (314) 989-2895
Manager: JOHN O'BRIEN
1015 CORPORATE SQ DR., SUITE 110
ST LOUIS, MO 63132
Phone (314) 989-2895

Additional Remarks

A52-H1 30' BLDG (LGTD) 150' W & 30' SIGN STRUCTURE 35' S OF PAD.
DUE TO MULTIPLE OBSTRUCTIONS WITHIN H1 TLOF, FATO, AND SAFETY AREAS, NO CLEAR INGRESS/EGRESS EXISTS FOR THIS HELIPORT. EXERCISE CAUTION.
FOR CD CTC ST LOUIS APCH AT 314-890-1018.

Instrument Procedures

There are no published instrument procedures at MO55.

Some nearby airports with instrument procedures:

KCPS - St Louis Downtown Airport (5 nm SE)
KSTL - St Louis Lambert International Airport (10 nm NW)
1H0 - Creve Coeur Airport (14 nm NW)
KALN - St Louis Regional Airport (19 nm NE)
KSUS - Spirit of St Louis Airport (19 nm W)
KBLV - Scott Air Force Base/MidAmerica Airport (20 nm E)
 
Loc | Ops | Rwys | IFR | FBO | Links
Com | Nav | Svcs | Stats | Notes

Kansas City Aviation Department
 
Area around MO55 (SSM Health St Louis University Hospital Heliport)
 
Road maps at: MapQuest Bing Google
 
Aerial photo
No photo
 
Sectional chart

 
Airport distance calculator
Flying to SSM Health St Louis University Hospital Heliport? Find the distance to fly.

From to MO55

Sunrise and sunset
Times for 06-Dec-2019
 Local
(UTC-6)
 Zulu
(UTC)
Morning civil twilight06:3612:36
Sunrise07:0613:06
Sunset16:3922:39
Evening civil twilight17:0823:08

Current date and time
Zulu (UTC)  06-Dec-2019 15:11:44
Local (UTC-6)  06-Dec-2019 09:11:44
 
METAR
KCPS 
5nm SE 
061453Z 35015G24KT 10SM OVC017 06/01 A3020 RMK AO2 SLP228 T00560011 53051
KSTL 
10nm NW 
061451Z 36018G23KT 8SM BKN015 OVC110 06/01 A3022 RMK AO2 SLP235 T00610011 53054 $
KALN 
18nm NE 
061450Z 34018G24KT 10SM OVC013 04/03 A3021
KSUS 
19nm W 
061454Z 35014G20KT 10SM OVC016 05/01 A3022 RMK AO2 SLP236 T00500011 53054
KBLV 
20nm E 
061501Z AUTO 36016G22KT 10SM BKN017 07/03 A3017 RMK AO2 BKN V SCT CIG 016 RWY32L SLP221 $
TAF
KCPS 
5nm SE 
061132Z 0612/0712 33007KT P6SM VCSH SCT020 BKN090 FM061500 36016G26KT P6SM BKN020 FM062000 01014G24KT P6SM SCT025 FM070000 02007KT P6SM SKC FM070600 VRB04KT P6SM SKC
KSTL 
10nm NW 
061132Z 0612/0718 33007KT P6SM SCT020 BKN090 FM061400 36016G26KT P6SM BKN020 FM061900 01013G23KT P6SM SCT025 FM070000 03006KT P6SM SKC FM070600 VRB04KT P6SM SKC
KSUS 
19nm W 
061132Z 0612/0712 33007KT P6SM SCT020 BKN090 FM061400 36016G26KT P6SM BKN020 FM061900 01013G23KT P6SM SCT025 FM070000 03005KT P6SM SKC FM070600 VRB03KT P6SM SKC
KBLV 
20nm E 
060800Z 0608/0714 VRB06KT 9999 SCT050 QNH2998INS BECMG 0614/0615 36015G20KT 9999 BKN015 QNH3012INS BECMG 0621/0622 01009KT 9999 SCT025 QNH3025INS TX08/0619Z TN00/0708Z
NOTAMs
Click for the latest NOTAMs
NOTAMs are issued by the DoD/FAA and will open in a separate window not controlled by AirNav.

 

 
 

Would you like to see your business listed on this page?

 If your business provides an interesting product or service to pilots, flight crews, aircraft, or users of the SSM Health St Louis University Hospital Heliport, you should consider listing it here.  To start the listing process, click on the button below
 
Add a business
 

Other Pages about SSM Health St Louis University Hospital Heliport

Update a link
 
Copyright © AirNav, LLC. All rights reserved. Privacy Policy  Contact